sensor_id;sensor_type;location;lat;lon;timestamp;P1;durP1;ratioP1;P2;durP2;ratioP2
3985;SDS011;2007;48.750;9.278;2022-10-04T00:01:02;2.23;;;2.03;;
3985;SDS011;2007;48.750;9.278;2022-10-04T00:03:34;1.93;;;1.57;;
3985;SDS011;2007;48.750;9.278;2022-10-04T00:06:10;2.33;;;2.13;;
3985;SDS011;2007;48.750;9.278;2022-10-04T00:08:47;2.40;;;2.07;;
3985;SDS011;2007;48.750;9.278;2022-10-04T00:11:21;3.13;;;2.00;;
3985;SDS011;2007;48.750;9.278;2022-10-04T00:13:54;2.10;;;1.90;;
3985;SDS011;2007;48.750;9.278;2022-10-04T00:16:25;2.47;;;2.13;;
3985;SDS011;2007;48.750;9.278;2022-10-04T00:31:09;2.40;;;1.83;;
3985;SDS011;2007;48.750;9.278;2022-10-04T00:33:39;2.20;;;1.97;;
3985;SDS011;2007;48.750;9.278;2022-10-04T00:39:12;2.40;;;2.00;;
3985;SDS011;2007;48.750;9.278;2022-10-04T00:41:56;2.67;;;2.20;;
3985;SDS011;2007;48.750;9.278;2022-10-04T00:44:32;2.10;;;1.90;;
3985;SDS011;2007;48.750;9.278;2022-10-04T00:47:13;2.20;;;1.60;;
3985;SDS011;2007;48.750;9.278;2022-10-04T00:49:52;3.50;;;2.03;;
3985;SDS011;2007;48.750;9.278;2022-10-04T00:52:24;2.87;;;2.03;;
3985;SDS011;2007;48.750;9.278;2022-10-04T00:54:56;3.40;;;2.13;;
3985;SDS011;2007;48.750;9.278;2022-10-04T00:57:27;2.47;;;1.93;;
3985;SDS011;2007;48.750;9.278;2022-10-04T00:59:59;2.27;;;1.70;;
3985;SDS011;2007;48.750;9.278;2022-10-04T01:02:32;2.60;;;2.30;;
3985;SDS011;2007;48.750;9.278;2022-10-04T01:05:04;2.30;;;1.87;;
3985;SDS011;2007;48.750;9.278;2022-10-04T01:07:36;2.70;;;1.90;;
3985;SDS011;2007;48.750;9.278;2022-10-04T01:10:09;2.40;;;1.60;;
3985;SDS011;2007;48.750;9.278;2022-10-04T01:12:42;2.40;;;2.00;;
3985;SDS011;2007;48.750;9.278;2022-10-04T01:15:17;3.93;;;2.00;;
3985;SDS011;2007;48.750;9.278;2022-10-04T01:18:07;2.47;;;2.23;;
3985;SDS011;2007;48.750;9.278;2022-10-04T01:20:37;2.57;;;2.27;;
3985;SDS011;2007;48.750;9.278;2022-10-04T01:23:09;2.57;;;2.37;;
3985;SDS011;2007;48.750;9.278;2022-10-04T01:25:44;2.80;;;1.87;;
3985;SDS011;2007;48.750;9.278;2022-10-04T01:28:13;2.83;;;2.00;;
3985;SDS011;2007;48.750;9.278;2022-10-04T01:30:42;3.17;;;2.03;;
3985;SDS011;2007;48.750;9.278;2022-10-04T01:33:11;2.47;;;2.27;;
3985;SDS011;2007;48.750;9.278;2022-10-04T01:35:39;2.13;;;1.90;;
3985;SDS011;2007;48.750;9.278;2022-10-04T01:38:07;3.10;;;1.83;;
3985;SDS011;2007;48.750;9.278;2022-10-04T01:40:38;2.33;;;1.87;;
3985;SDS011;2007;48.750;9.278;2022-10-04T01:43:13;2.23;;;1.70;;
3985;SDS011;2007;48.750;9.278;2022-10-04T01:45:47;2.33;;;1.87;;
3985;SDS011;2007;48.750;9.278;2022-10-04T01:48:19;2.30;;;1.93;;
3985;SDS011;2007;48.750;9.278;2022-10-04T01:50:52;2.40;;;2.10;;
3985;SDS011;2007;48.750;9.278;2022-10-04T01:53:25;2.67;;;2.47;;
3985;SDS011;2007;48.750;9.278;2022-10-04T01:56:01;2.20;;;1.97;;
3985;SDS011;2007;48.750;9.278;2022-10-04T01:58:32;2.07;;;1.70;;
3985;SDS011;2007;48.750;9.278;2022-10-04T02:01:09;2.20;;;1.47;;
3985;SDS011;2007;48.750;9.278;2022-10-04T02:03:40;2.53;;;2.07;;
3985;SDS011;2007;48.750;9.278;2022-10-04T02:06:11;3.30;;;2.40;;
3985;SDS011;2007;48.750;9.278;2022-10-04T02:08:44;2.30;;;1.53;;
3985;SDS011;2007;48.750;9.278;2022-10-04T02:11:17;2.50;;;2.30;;
3985;SDS011;2007;48.750;9.278;2022-10-04T02:13:47;2.30;;;2.07;;
3985;SDS011;2007;48.750;9.278;2022-10-04T02:16:17;2.57;;;2.37;;
3985;SDS011;2007;48.750;9.278;2022-10-04T02:18:47;2.20;;;1.97;;
3985;SDS011;2007;48.750;9.278;2022-10-04T02:21:17;2.30;;;2.10;;
3985;SDS011;2007;48.750;9.278;2022-10-04T02:23:46;2.33;;;1.97;;
3985;SDS011;2007;48.750;9.278;2022-10-04T02:26:15;2.30;;;1.97;;
3985;SDS011;2007;48.750;9.278;2022-10-04T02:28:44;2.33;;;1.93;;
3985;SDS011;2007;48.750;9.278;2022-10-04T02:31:12;2.90;;;2.23;;
3985;SDS011;2007;48.750;9.278;2022-10-04T02:33:57;2.20;;;2.00;;
3985;SDS011;2007;48.750;9.278;2022-10-04T02:36:26;2.23;;;2.00;;
3985;SDS011;2007;48.750;9.278;2022-10-04T02:38:57;3.03;;;2.20;;
3985;SDS011;2007;48.750;9.278;2022-10-04T02:41:30;2.50;;;2.20;;
3985;SDS011;2007;48.750;9.278;2022-10-04T02:44:02;2.63;;;2.17;;
3985;SDS011;2007;48.750;9.278;2022-10-04T02:46:39;2.97;;;2.50;;
3985;SDS011;2007;48.750;9.278;2022-10-04T02:49:17;2.20;;;1.80;;
3985;SDS011;2007;48.750;9.278;2022-10-04T02:51:49;2.30;;;2.10;;
3985;SDS011;2007;48.750;9.278;2022-10-04T02:54:21;2.20;;;1.93;;
3985;SDS011;2007;48.750;9.278;2022-10-04T02:56:56;2.27;;;2.00;;
3985;SDS011;2007;48.750;9.278;2022-10-04T02:59:25;2.37;;;2.10;;
3985;SDS011;2007;48.750;9.278;2022-10-04T03:02:00;3.20;;;2.47;;
3985;SDS011;2007;48.750;9.278;2022-10-04T03:04:29;2.40;;;2.13;;
3985;SDS011;2007;48.750;9.278;2022-10-04T03:07:00;2.40;;;1.90;;
3985;SDS011;2007;48.750;9.278;2022-10-04T03:09:31;2.37;;;2.13;;
3985;SDS011;2007;48.750;9.278;2022-10-04T03:12:02;2.40;;;1.80;;
3985;SDS011;2007;48.750;9.278;2022-10-04T03:14:32;2.97;;;2.57;;
3985;SDS011;2007;48.750;9.278;2022-10-04T03:17:00;3.90;;;2.07;;
3985;SDS011;2007;48.750;9.278;2022-10-04T03:19:30;2.40;;;1.90;;
3985;SDS011;2007;48.750;9.278;2022-10-04T03:22:00;2.33;;;2.10;;
3985;SDS011;2007;48.750;9.278;2022-10-04T03:24:34;4.17;;;2.10;;
3985;SDS011;2007;48.750;9.278;2022-10-04T03:27:13;2.90;;;2.03;;
3985;SDS011;2007;48.750;9.278;2022-10-04T03:29:43;3.00;;;2.30;;
3985;SDS011;2007;48.750;9.278;2022-10-04T03:32:13;2.57;;;2.33;;
3985;SDS011;2007;48.750;9.278;2022-10-04T03:34:45;2.00;;;1.80;;
3985;SDS011;2007;48.750;9.278;2022-10-04T03:37:18;2.73;;;1.63;;
3985;SDS011;2007;48.750;9.278;2022-10-04T03:39:47;2.73;;;2.53;;
3985;SDS011;2007;48.750;9.278;2022-10-04T03:42:19;2.53;;;1.80;;
3985;SDS011;2007;48.750;9.278;2022-10-04T03:44:50;2.23;;;2.03;;
3985;SDS011;2007;48.750;9.278;2022-10-04T03:47:21;2.57;;;1.97;;
3985;SDS011;2007;48.750;9.278;2022-10-04T03:49:52;2.53;;;2.13;;
3985;SDS011;2007;48.750;9.278;2022-10-04T03:52:22;2.97;;;2.70;;
3985;SDS011;2007;48.750;9.278;2022-10-04T03:54:53;1.83;;;1.30;;
3985;SDS011;2007;48.750;9.278;2022-10-04T03:57:25;2.40;;;1.83;;
3985;SDS011;2007;48.750;9.278;2022-10-04T03:59:53;2.27;;;2.07;;
3985;SDS011;2007;48.750;9.278;2022-10-04T04:02:26;2.77;;;2.27;;
3985;SDS011;2007;48.750;9.278;2022-10-04T04:05:00;2.20;;;1.90;;
3985;SDS011;2007;48.750;9.278;2022-10-04T04:07:35;2.70;;;2.50;;
3985;SDS011;2007;48.750;9.278;2022-10-04T04:10:08;3.00;;;2.00;;
3985;SDS011;2007;48.750;9.278;2022-10-04T04:12:47;2.00;;;1.73;;
3985;SDS011;2007;48.750;9.278;2022-10-04T04:15:20;2.37;;;2.17;;
3985;SDS011;2007;48.750;9.278;2022-10-04T04:17:49;2.30;;;2.10;;
3985;SDS011;2007;48.750;9.278;2022-10-04T04:20:20;2.27;;;2.03;;
3985;SDS011;2007;48.750;9.278;2022-10-04T04:22:56;2.13;;;1.80;;
3985;SDS011;2007;48.750;9.278;2022-10-04T04:25:27;2.53;;;1.90;;
3985;SDS011;2007;48.750;9.278;2022-10-04T04:28:04;2.30;;;2.07;;
3985;SDS011;2007;48.750;9.278;2022-10-04T04:30:42;2.20;;;1.70;;
3985;SDS011;2007;48.750;9.278;2022-10-04T04:33:12;3.10;;;2.50;;
3985;SDS011;2007;48.750;9.278;2022-10-04T04:35:46;2.00;;;1.60;;
3985;SDS011;2007;48.750;9.278;2022-10-04T04:38:16;2.30;;;1.70;;
3985;SDS011;2007;48.750;9.278;2022-10-04T04:40:47;2.40;;;1.97;;
3985;SDS011;2007;48.750;9.278;2022-10-04T04:43:23;2.17;;;1.97;;
3985;SDS011;2007;48.750;9.278;2022-10-04T04:45:53;2.10;;;1.90;;
3985;SDS011;2007;48.750;9.278;2022-10-04T04:48:43;2.13;;;1.70;;
3985;SDS011;2007;48.750;9.278;2022-10-04T04:51:13;2.93;;;2.33;;
3985;SDS011;2007;48.750;9.278;2022-10-04T04:53:46;1.87;;;1.50;;
3985;SDS011;2007;48.750;9.278;2022-10-04T04:56:16;1.90;;;1.53;;
3985;SDS011;2007;48.750;9.278;2022-10-04T04:58:50;2.00;;;1.70;;
3985;SDS011;2007;48.750;9.278;2022-10-04T05:01:21;2.13;;;1.93;;
3985;SDS011;2007;48.750;9.278;2022-10-04T05:04:01;2.20;;;1.70;;
3985;SDS011;2007;48.750;9.278;2022-10-04T05:06:30;2.60;;;2.27;;
3985;SDS011;2007;48.750;9.278;2022-10-04T05:09:00;2.07;;;1.67;;
3985;SDS011;2007;48.750;9.278;2022-10-04T05:11:30;3.30;;;2.50;;
3985;SDS011;2007;48.750;9.278;2022-10-04T05:14:03;1.90;;;1.60;;
3985;SDS011;2007;48.750;9.278;2022-10-04T05:16:35;1.80;;;1.57;;
3985;SDS011;2007;48.750;9.278;2022-10-04T05:19:06;2.40;;;1.97;;
3985;SDS011;2007;48.750;9.278;2022-10-04T05:21:41;2.10;;;1.90;;
3985;SDS011;2007;48.750;9.278;2022-10-04T05:24:11;2.30;;;2.10;;
3985;SDS011;2007;48.750;9.278;2022-10-04T05:26:47;2.40;;;2.20;;
3985;SDS011;2007;48.750;9.278;2022-10-04T05:29:18;2.83;;;2.10;;
3985;SDS011;2007;48.750;9.278;2022-10-04T05:31:48;1.80;;;1.50;;
3985;SDS011;2007;48.750;9.278;2022-10-04T05:34:23;2.30;;;1.97;;
3985;SDS011;2007;48.750;9.278;2022-10-04T05:36:55;2.20;;;1.80;;
3985;SDS011;2007;48.750;9.278;2022-10-04T05:39:33;5.43;;;2.13;;
3985;SDS011;2007;48.750;9.278;2022-10-04T05:42:10;2.60;;;2.40;;
3985;SDS011;2007;48.750;9.278;2022-10-04T05:44:48;3.20;;;1.97;;
3985;SDS011;2007;48.750;9.278;2022-10-04T05:47:18;2.13;;;1.80;;
3985;SDS011;2007;48.750;9.278;2022-10-04T05:49:49;2.30;;;2.00;;
3985;SDS011;2007;48.750;9.278;2022-10-04T05:52:26;2.57;;;1.77;;
3985;SDS011;2007;48.750;9.278;2022-10-04T05:58:03;2.27;;;2.07;;
3985;SDS011;2007;48.750;9.278;2022-10-04T06:00:48;2.17;;;1.80;;
3985;SDS011;2007;48.750;9.278;2022-10-04T06:03:36;2.27;;;1.80;;
3985;SDS011;2007;48.750;9.278;2022-10-04T06:06:15;2.43;;;2.10;;
3985;SDS011;2007;48.750;9.278;2022-10-04T06:08:49;2.60;;;2.00;;
3985;SDS011;2007;48.750;9.278;2022-10-04T06:11:25;2.33;;;1.97;;
3985;SDS011;2007;48.750;9.278;2022-10-04T06:17:12;2.77;;;2.00;;
3985;SDS011;2007;48.750;9.278;2022-10-04T06:20:05;2.60;;;2.10;;
3985;SDS011;2007;48.750;9.278;2022-10-04T06:22:45;3.37;;;1.83;;
3985;SDS011;2007;48.750;9.278;2022-10-04T06:25:16;2.00;;;1.73;;
3985;SDS011;2007;48.750;9.278;2022-10-04T06:27:53;2.10;;;1.83;;
3985;SDS011;2007;48.750;9.278;2022-10-04T06:30:28;2.57;;;1.90;;
3985;SDS011;2007;48.750;9.278;2022-10-04T06:33:16;3.13;;;2.07;;
3985;SDS011;2007;48.750;9.278;2022-10-04T06:35:57;2.20;;;2.00;;
3985;SDS011;2007;48.750;9.278;2022-10-04T06:41:56;2.30;;;2.10;;
3985;SDS011;2007;48.750;9.278;2022-10-04T06:44:51;2.60;;;1.97;;
3985;SDS011;2007;48.750;9.278;2022-10-04T06:47:36;2.20;;;2.00;;
3985;SDS011;2007;48.750;9.278;2022-10-04T06:50:21;2.60;;;2.40;;
3985;SDS011;2007;48.750;9.278;2022-10-04T06:52:58;2.27;;;2.07;;
3985;SDS011;2007;48.750;9.278;2022-10-04T06:55:39;2.40;;;2.00;;
3985;SDS011;2007;48.750;9.278;2022-10-04T07:01:26;2.10;;;1.87;;
3985;SDS011;2007;48.750;9.278;2022-10-04T07:03:58;2.10;;;1.73;;
3985;SDS011;2007;48.750;9.278;2022-10-04T07:06:35;2.30;;;2.00;;
3985;SDS011;2007;48.750;9.278;2022-10-04T07:09:11;2.03;;;1.73;;
3985;SDS011;2007;48.750;9.278;2022-10-04T07:11:46;2.20;;;1.97;;
3985;SDS011;2007;48.750;9.278;2022-10-04T07:14:19;2.40;;;2.10;;
3985;SDS011;2007;48.750;9.278;2022-10-04T07:16:52;1.93;;;1.60;;
3985;SDS011;2007;48.750;9.278;2022-10-04T07:19:33;2.30;;;2.10;;
3985;SDS011;2007;48.750;9.278;2022-10-04T07:22:14;3.30;;;2.07;;
3985;SDS011;2007;48.750;9.278;2022-10-04T07:24:50;2.30;;;1.93;;
3985;SDS011;2007;48.750;9.278;2022-10-04T07:27:26;2.10;;;1.83;;
3985;SDS011;2007;48.750;9.278;2022-10-04T07:29:59;2.40;;;2.10;;
3985;SDS011;2007;48.750;9.278;2022-10-04T07:32:30;2.07;;;1.80;;
3985;SDS011;2007;48.750;9.278;2022-10-04T07:35:02;2.03;;;1.83;;
3985;SDS011;2007;48.750;9.278;2022-10-04T07:37:46;2.00;;;1.77;;
3985;SDS011;2007;48.750;9.278;2022-10-04T07:40:19;2.40;;;1.90;;
3985;SDS011;2007;48.750;9.278;2022-10-04T07:42:50;2.60;;;2.30;;
3985;SDS011;2007;48.750;9.278;2022-10-04T07:45:26;2.43;;;1.60;;
3985;SDS011;2007;48.750;9.278;2022-10-04T07:48:01;2.20;;;2.00;;
3985;SDS011;2007;48.750;9.278;2022-10-04T07:50:32;2.67;;;1.77;;
3985;SDS011;2007;48.750;9.278;2022-10-04T07:53:08;3.00;;;2.03;;
3985;SDS011;2007;48.750;9.278;2022-10-04T07:55:44;2.77;;;2.00;;
3985;SDS011;2007;48.750;9.278;2022-10-04T07:58:24;2.17;;;1.80;;
3985;SDS011;2007;48.750;9.278;2022-10-04T08:01:15;2.00;;;1.60;;
3985;SDS011;2007;48.750;9.278;2022-10-04T08:03:50;2.57;;;1.97;;
3985;SDS011;2007;48.750;9.278;2022-10-04T08:06:30;2.80;;;1.73;;
3985;SDS011;2007;48.750;9.278;2022-10-04T08:09:15;2.50;;;1.83;;
3985;SDS011;2007;48.750;9.278;2022-10-04T08:12:00;2.13;;;1.93;;
3985;SDS011;2007;48.750;9.278;2022-10-04T08:14:43;2.60;;;1.73;;
3985;SDS011;2007;48.750;9.278;2022-10-04T08:17:22;2.00;;;1.77;;
3985;SDS011;2007;48.750;9.278;2022-10-04T08:20:01;2.30;;;1.90;;
3985;SDS011;2007;48.750;9.278;2022-10-04T08:22:49;2.27;;;1.80;;
3985;SDS011;2007;48.750;9.278;2022-10-04T08:25:27;2.00;;;1.77;;
3985;SDS011;2007;48.750;9.278;2022-10-04T08:28:01;2.57;;;2.37;;
3985;SDS011;2007;48.750;9.278;2022-10-04T08:31:02;2.47;;;2.03;;
3985;SDS011;2007;48.750;9.278;2022-10-04T08:33:46;2.67;;;1.80;;
3985;SDS011;2007;48.750;9.278;2022-10-04T08:36:39;2.50;;;1.97;;
3985;SDS011;2007;48.750;9.278;2022-10-04T08:39:22;2.03;;;1.83;;
3985;SDS011;2007;48.750;9.278;2022-10-04T08:42:18;2.93;;;2.13;;
3985;SDS011;2007;48.750;9.278;2022-10-04T08:45:17;2.13;;;1.93;;
3985;SDS011;2007;48.750;9.278;2022-10-04T08:48:27;2.10;;;1.70;;
3985;SDS011;2007;48.750;9.278;2022-10-04T08:51:28;2.47;;;2.20;;
3985;SDS011;2007;48.750;9.278;2022-10-04T08:54:41;2.00;;;1.50;;
3985;SDS011;2007;48.750;9.278;2022-10-04T09:00:39;2.43;;;2.00;;
3985;SDS011;2007;48.750;9.278;2022-10-04T09:06:39;1.90;;;1.60;;
3985;SDS011;2007;48.750;9.278;2022-10-04T09:15:19;2.30;;;1.83;;
3985;SDS011;2007;48.750;9.278;2022-10-04T09:18:01;2.03;;;1.80;;
3985;SDS011;2007;48.750;9.278;2022-10-04T09:20:46;2.10;;;1.60;;
3985;SDS011;2007;48.750;9.278;2022-10-04T09:23:46;2.30;;;1.70;;
3985;SDS011;2007;48.750;9.278;2022-10-04T09:26:40;2.00;;;1.80;;
3985;SDS011;2007;48.750;9.278;2022-10-04T09:29:17;2.27;;;1.70;;
3985;SDS011;2007;48.750;9.278;2022-10-04T09:35:02;2.10;;;1.70;;
3985;SDS011;2007;48.750;9.278;2022-10-04T09:37:45;2.00;;;1.60;;
3985;SDS011;2007;48.750;9.278;2022-10-04T09:43:52;2.10;;;1.70;;
3985;SDS011;2007;48.750;9.278;2022-10-04T09:46:39;2.50;;;2.20;;
3985;SDS011;2007;48.750;9.278;2022-10-04T09:49:37;2.20;;;1.73;;
3985;SDS011;2007;48.750;9.278;2022-10-04T09:52:21;1.77;;;1.40;;
3985;SDS011;2007;48.750;9.278;2022-10-04T09:55:08;2.47;;;1.70;;
3985;SDS011;2007;48.750;9.278;2022-10-04T09:57:58;2.27;;;2.00;;
3985;SDS011;2007;48.750;9.278;2022-10-04T10:00:47;2.30;;;2.10;;
3985;SDS011;2007;48.750;9.278;2022-10-04T10:03:26;1.90;;;1.40;;
3985;SDS011;2007;48.750;9.278;2022-10-04T10:06:19;2.60;;;1.90;;
3985;SDS011;2007;48.750;9.278;2022-10-04T10:09:19;2.07;;;1.80;;
3985;SDS011;2007;48.750;9.278;2022-10-04T10:12:19;2.40;;;1.73;;
3985;SDS011;2007;48.750;9.278;2022-10-04T10:15:28;2.57;;;2.00;;
3985;SDS011;2007;48.750;9.278;2022-10-04T10:18:10;1.87;;;1.63;;
3985;SDS011;2007;48.750;9.278;2022-10-04T10:20:49;2.00;;;1.70;;
3985;SDS011;2007;48.750;9.278;2022-10-04T10:26:25;1.97;;;1.70;;
3985;SDS011;2007;48.750;9.278;2022-10-04T10:35:25;1.90;;;1.70;;
3985;SDS011;2007;48.750;9.278;2022-10-04T10:38:04;2.80;;;1.73;;
3985;SDS011;2007;48.750;9.278;2022-10-04T10:40:48;2.20;;;1.73;;
3985;SDS011;2007;48.750;9.278;2022-10-04T10:43:30;2.10;;;1.67;;
3985;SDS011;2007;48.750;9.278;2022-10-04T10:46:17;2.00;;;1.60;;
3985;SDS011;2007;48.750;9.278;2022-10-04T10:49:01;2.03;;;1.67;;
3985;SDS011;2007;48.750;9.278;2022-10-04T10:58:01;2.20;;;1.87;;
3985;SDS011;2007;48.750;9.278;2022-10-04T11:00:57;2.13;;;1.77;;
3985;SDS011;2007;48.750;9.278;2022-10-04T11:03:47;2.03;;;1.57;;
3985;SDS011;2007;48.750;9.278;2022-10-04T11:06:33;2.37;;;1.90;;
3985;SDS011;2007;48.750;9.278;2022-10-04T11:09:41;1.90;;;1.43;;
3985;SDS011;2007;48.750;9.278;2022-10-04T11:12:36;2.40;;;2.00;;
3985;SDS011;2007;48.750;9.278;2022-10-04T11:15:53;1.67;;;1.37;;
3985;SDS011;2007;48.750;9.278;2022-10-04T11:21:59;2.30;;;1.80;;
3985;SDS011;2007;48.750;9.278;2022-10-04T11:27:56;2.00;;;1.60;;
3985;SDS011;2007;48.750;9.278;2022-10-04T11:30:35;2.40;;;1.70;;
3985;SDS011;2007;48.750;9.278;2022-10-04T11:33:31;2.17;;;1.70;;
3985;SDS011;2007;48.750;9.278;2022-10-04T11:36:30;1.70;;;1.30;;
3985;SDS011;2007;48.750;9.278;2022-10-04T11:42:13;1.90;;;1.40;;
3985;SDS011;2007;48.750;9.278;2022-10-04T11:45:04;1.70;;;1.53;;
3985;SDS011;2007;48.750;9.278;2022-10-04T11:47:55;2.27;;;1.73;;
3985;SDS011;2007;48.750;9.278;2022-10-04T11:50:42;2.17;;;1.40;;
3985;SDS011;2007;48.750;9.278;2022-10-04T11:56:32;1.70;;;1.50;;
3985;SDS011;2007;48.750;9.278;2022-10-04T11:59:33;1.70;;;1.17;;
3985;SDS011;2007;48.750;9.278;2022-10-04T12:05:32;2.10;;;1.70;;
3985;SDS011;2007;48.750;9.278;2022-10-04T12:08:38;1.90;;;1.40;;
3985;SDS011;2007;48.750;9.278;2022-10-04T12:11:23;1.60;;;1.20;;
3985;SDS011;2007;48.750;9.278;2022-10-04T12:14:28;1.80;;;1.37;;
3985;SDS011;2007;48.750;9.278;2022-10-04T12:17:28;2.00;;;1.70;;
3985;SDS011;2007;48.750;9.278;2022-10-04T12:20:19;1.67;;;1.30;;
3985;SDS011;2007;48.750;9.278;2022-10-04T12:23:07;2.13;;;1.40;;
3985;SDS011;2007;48.750;9.278;2022-10-04T12:26:01;2.20;;;1.30;;
3985;SDS011;2007;48.750;9.278;2022-10-04T12:28:55;2.10;;;1.60;;
3985;SDS011;2007;48.750;9.278;2022-10-04T12:31:30;1.90;;;1.40;;
3985;SDS011;2007;48.750;9.278;2022-10-04T12:34:04;3.60;;;1.40;;
3985;SDS011;2007;48.750;9.278;2022-10-04T12:36:48;4.77;;;1.50;;
3985;SDS011;2007;48.750;9.278;2022-10-04T12:42:28;1.93;;;1.37;;
3985;SDS011;2007;48.750;9.278;2022-10-04T12:45:14;1.90;;;1.17;;
3985;SDS011;2007;48.750;9.278;2022-10-04T12:48:01;1.90;;;1.40;;
3985;SDS011;2007;48.750;9.278;2022-10-04T12:50:52;1.70;;;1.30;;
3985;SDS011;2007;48.750;9.278;2022-10-04T12:53:32;2.27;;;1.60;;
3985;SDS011;2007;48.750;9.278;2022-10-04T12:56:07;2.00;;;1.60;;
3985;SDS011;2007;48.750;9.278;2022-10-04T12:58:48;1.80;;;1.53;;
3985;SDS011;2007;48.750;9.278;2022-10-04T13:01:29;1.70;;;1.30;;
3985;SDS011;2007;48.750;9.278;2022-10-04T13:04:20;1.90;;;1.53;;
3985;SDS011;2007;48.750;9.278;2022-10-04T13:06:58;1.80;;;1.47;;
3985;SDS011;2007;48.750;9.278;2022-10-04T13:09:51;2.10;;;1.60;;
3985;SDS011;2007;48.750;9.278;2022-10-04T13:13:06;1.90;;;1.50;;
3985;SDS011;2007;48.750;9.278;2022-10-04T13:15:56;2.43;;;1.70;;
3985;SDS011;2007;48.750;9.278;2022-10-04T13:18:55;1.87;;;1.27;;
3985;SDS011;2007;48.750;9.278;2022-10-04T13:25:08;1.93;;;1.73;;
3985;SDS011;2007;48.750;9.278;2022-10-04T13:27:45;2.00;;;1.50;;
3985;SDS011;2007;48.750;9.278;2022-10-04T13:30:18;1.77;;;1.30;;
3985;SDS011;2007;48.750;9.278;2022-10-04T13:32:54;1.80;;;1.40;;
3985;SDS011;2007;48.750;9.278;2022-10-04T13:35:30;2.20;;;1.30;;
3985;SDS011;2007;48.750;9.278;2022-10-04T13:38:16;1.93;;;1.60;;
3985;SDS011;2007;48.750;9.278;2022-10-04T13:40:56;1.80;;;1.50;;
3985;SDS011;2007;48.750;9.278;2022-10-04T13:43:41;1.67;;;1.13;;
3985;SDS011;2007;48.750;9.278;2022-10-04T13:46:49;2.07;;;1.50;;
3985;SDS011;2007;48.750;9.278;2022-10-04T13:49:35;1.97;;;1.67;;
3985;SDS011;2007;48.750;9.278;2022-10-04T13:52:18;2.50;;;1.30;;
3985;SDS011;2007;48.750;9.278;2022-10-04T13:55:18;1.93;;;1.40;;
3985;SDS011;2007;48.750;9.278;2022-10-04T13:58:14;1.90;;;1.40;;
3985;SDS011;2007;48.750;9.278;2022-10-04T14:04:04;1.73;;;1.40;;
3985;SDS011;2007;48.750;9.278;2022-10-04T14:07:07;1.70;;;1.20;;
3985;SDS011;2007;48.750;9.278;2022-10-04T14:09:59;1.50;;;1.00;;
3985;SDS011;2007;48.750;9.278;2022-10-04T14:12:39;1.80;;;1.20;;
3985;SDS011;2007;48.750;9.278;2022-10-04T14:15:36;1.60;;;1.03;;
3985;SDS011;2007;48.750;9.278;2022-10-04T14:21:36;1.77;;;1.30;;
3985;SDS011;2007;48.750;9.278;2022-10-04T14:24:50;1.90;;;1.50;;
3985;SDS011;2007;48.750;9.278;2022-10-04T14:31:00;1.77;;;1.23;;
3985;SDS011;2007;48.750;9.278;2022-10-04T14:36:48;2.10;;;1.03;;
3985;SDS011;2007;48.750;9.278;2022-10-04T14:42:41;3.30;;;1.60;;
3985;SDS011;2007;48.750;9.278;2022-10-04T14:45:20;1.90;;;1.53;;
3985;SDS011;2007;48.750;9.278;2022-10-04T14:48:10;1.90;;;1.20;;
3985;SDS011;2007;48.750;9.278;2022-10-04T14:51:02;2.03;;;1.57;;
3985;SDS011;2007;48.750;9.278;2022-10-04T14:53:46;1.90;;;1.30;;
3985;SDS011;2007;48.750;9.278;2022-10-04T14:56:31;1.70;;;1.10;;
3985;SDS011;2007;48.750;9.278;2022-10-04T14:59:16;1.83;;;1.33;;
3985;SDS011;2007;48.750;9.278;2022-10-04T15:02:09;1.70;;;1.20;;
3985;SDS011;2007;48.750;9.278;2022-10-04T15:05:00;1.63;;;1.00;;
3985;SDS011;2007;48.750;9.278;2022-10-04T15:07:39;1.83;;;1.30;;
3985;SDS011;2007;48.750;9.278;2022-10-04T15:10:13;1.60;;;1.10;;
3985;SDS011;2007;48.750;9.278;2022-10-04T15:12:54;1.60;;;1.20;;
3985;SDS011;2007;48.750;9.278;2022-10-04T15:15:51;1.80;;;1.30;;
3985;SDS011;2007;48.750;9.278;2022-10-04T15:18:33;1.90;;;1.50;;
3985;SDS011;2007;48.750;9.278;2022-10-04T15:21:19;2.63;;;1.53;;
3985;SDS011;2007;48.750;9.278;2022-10-04T15:24:09;2.00;;;1.37;;
3985;SDS011;2007;48.750;9.278;2022-10-04T15:26:53;2.03;;;1.30;;
3985;SDS011;2007;48.750;9.278;2022-10-04T15:29:50;2.00;;;1.47;;
3985;SDS011;2007;48.750;9.278;2022-10-04T15:32:24;1.97;;;1.40;;
3985;SDS011;2007;48.750;9.278;2022-10-04T15:35:04;1.80;;;1.20;;
3985;SDS011;2007;48.750;9.278;2022-10-04T15:37:47;1.60;;;1.07;;
3985;SDS011;2007;48.750;9.278;2022-10-04T15:40:23;2.37;;;1.30;;
3985;SDS011;2007;48.750;9.278;2022-10-04T15:43:05;1.60;;;1.00;;
3985;SDS011;2007;48.750;9.278;2022-10-04T15:46:08;1.70;;;1.30;;
3985;SDS011;2007;48.750;9.278;2022-10-04T15:49:12;2.00;;;1.47;;
3985;SDS011;2007;48.750;9.278;2022-10-04T16:01:14;1.80;;;1.30;;
3985;SDS011;2007;48.750;9.278;2022-10-04T16:06:50;1.60;;;1.10;;
3985;SDS011;2007;48.750;9.278;2022-10-04T16:09:25;1.73;;;1.10;;
3985;SDS011;2007;48.750;9.278;2022-10-04T16:12:06;2.10;;;1.30;;
3985;SDS011;2007;48.750;9.278;2022-10-04T16:14:59;2.10;;;1.27;;
3985;SDS011;2007;48.750;9.278;2022-10-04T16:17:43;2.27;;;1.27;;
3985;SDS011;2007;48.750;9.278;2022-10-04T16:20:24;2.30;;;1.37;;
3985;SDS011;2007;48.750;9.278;2022-10-04T16:23:20;2.00;;;1.30;;
3985;SDS011;2007;48.750;9.278;2022-10-04T16:25:53;1.60;;;1.20;;
3985;SDS011;2007;48.750;9.278;2022-10-04T16:31:19;1.70;;;1.33;;
3985;SDS011;2007;48.750;9.278;2022-10-04T16:33:54;1.70;;;1.37;;
3985;SDS011;2007;48.750;9.278;2022-10-04T16:36:29;1.83;;;1.27;;
3985;SDS011;2007;48.750;9.278;2022-10-04T16:39:26;1.60;;;1.10;;
3985;SDS011;2007;48.750;9.278;2022-10-04T16:42:21;2.73;;;1.17;;
3985;SDS011;2007;48.750;9.278;2022-10-04T16:44:53;1.70;;;1.20;;
3985;SDS011;2007;48.750;9.278;2022-10-04T16:47:26;1.93;;;1.17;;
3985;SDS011;2007;48.750;9.278;2022-10-04T16:49:59;1.60;;;1.00;;
3985;SDS011;2007;48.750;9.278;2022-10-04T16:52:33;2.07;;;1.47;;
3985;SDS011;2007;48.750;9.278;2022-10-04T16:55:32;1.80;;;1.23;;
3985;SDS011;2007;48.750;9.278;2022-10-04T17:04:24;1.90;;;1.07;;
3985;SDS011;2007;48.750;9.278;2022-10-04T17:07:23;2.10;;;1.20;;
3985;SDS011;2007;48.750;9.278;2022-10-04T17:10:02;1.60;;;1.03;;
3985;SDS011;2007;48.750;9.278;2022-10-04T17:12:47;1.97;;;1.20;;
3985;SDS011;2007;48.750;9.278;2022-10-04T17:15:28;1.70;;;1.00;;
3985;SDS011;2007;48.750;9.278;2022-10-04T17:18:16;1.60;;;1.20;;
3985;SDS011;2007;48.750;9.278;2022-10-04T17:20:54;1.90;;;1.30;;
3985;SDS011;2007;48.750;9.278;2022-10-04T17:26:23;1.70;;;1.20;;
3985;SDS011;2007;48.750;9.278;2022-10-04T17:29:06;1.90;;;1.23;;
3985;SDS011;2007;48.750;9.278;2022-10-04T17:31:51;1.70;;;1.17;;
3985;SDS011;2007;48.750;9.278;2022-10-04T17:34:28;1.90;;;1.40;;
3985;SDS011;2007;48.750;9.278;2022-10-04T17:37:10;2.20;;;1.23;;
3985;SDS011;2007;48.750;9.278;2022-10-04T17:39:48;1.90;;;1.43;;
3985;SDS011;2007;48.750;9.278;2022-10-04T17:42:24;2.33;;;1.20;;
3985;SDS011;2007;48.750;9.278;2022-10-04T17:45:19;1.50;;;1.00;;
3985;SDS011;2007;48.750;9.278;2022-10-04T17:47:58;1.83;;;1.20;;
3985;SDS011;2007;48.750;9.278;2022-10-04T17:50:51;3.20;;;1.10;;
3985;SDS011;2007;48.750;9.278;2022-10-04T17:53:41;1.80;;;1.23;;
3985;SDS011;2007;48.750;9.278;2022-10-04T17:56:31;1.83;;;0.97;;
3985;SDS011;2007;48.750;9.278;2022-10-04T17:59:05;1.67;;;1.13;;
3985;SDS011;2007;48.750;9.278;2022-10-04T18:01:37;1.77;;;1.10;;
3985;SDS011;2007;48.750;9.278;2022-10-04T18:04:13;1.90;;;0.93;;
3985;SDS011;2007;48.750;9.278;2022-10-04T18:06:47;1.60;;;1.13;;
3985;SDS011;2007;48.750;9.278;2022-10-04T18:09:20;1.60;;;1.00;;
3985;SDS011;2007;48.750;9.278;2022-10-04T18:11:55;1.60;;;0.90;;
3985;SDS011;2007;48.750;9.278;2022-10-04T18:14:45;1.70;;;1.10;;
3985;SDS011;2007;48.750;9.278;2022-10-04T18:17:31;1.63;;;1.10;;
3985;SDS011;2007;48.750;9.278;2022-10-04T18:20:16;1.70;;;1.20;;
3985;SDS011;2007;48.750;9.278;2022-10-04T18:22:57;1.80;;;1.23;;
3985;SDS011;2007;48.750;9.278;2022-10-04T18:25:28;1.70;;;1.30;;
3985;SDS011;2007;48.750;9.278;2022-10-04T18:28:01;1.70;;;1.20;;
3985;SDS011;2007;48.750;9.278;2022-10-04T18:30:52;1.60;;;1.00;;
3985;SDS011;2007;48.750;9.278;2022-10-04T18:33:28;1.50;;;0.80;;
3985;SDS011;2007;48.750;9.278;2022-10-04T18:36:13;2.23;;;1.60;;
3985;SDS011;2007;48.750;9.278;2022-10-04T18:38:43;1.80;;;1.30;;
3985;SDS011;2007;48.750;9.278;2022-10-04T18:41:25;1.60;;;1.00;;